Аэропорт: Игнатьево. Благовещенск

ICAO: UHBB

METAR:
2018/05/20 19:00
UHBB 201900Z 00000MPS 9999 FEW033 08/07 Q1016 R36/090060 NOSIG RMK QFE744/0992
METAR:
2018/05/20 18:00
TAF UHBB 201658Z 2018/2118 33003MPS 9999 SCT030CB 
      BECMG 2100/2102 16006MPS